sensor_id;sensor_type;location;lat;lon;timestamp;pressure;altitude;pressure_sealevel;temperature;humidity
51239;BME280;38154;47.548;18.828;2023-04-19T00:02:24;98761.44;;;11.58;65.26
51239;BME280;38154;47.548;18.828;2023-04-19T00:04:50;98763.22;;;11.41;65.90
51239;BME280;38154;47.548;18.828;2023-04-19T00:07:15;98763.25;;;11.27;67.37
51239;BME280;38154;47.548;18.828;2023-04-19T00:09:43;98753.69;;;11.12;72.20
51239;BME280;38154;47.548;18.828;2023-04-19T00:12:08;98764.16;;;10.98;70.10
51239;BME280;38154;47.548;18.828;2023-04-19T00:14:34;98766.75;;;10.89;74.28
51239;BME280;38154;47.548;18.828;2023-04-19T00:16:59;98761.53;;;10.72;73.66
51239;BME280;38154;47.548;18.828;2023-04-19T00:19:25;98758.94;;;10.58;75.97
51239;BME280;38154;47.548;18.828;2023-04-19T00:21:51;98754.59;;;10.49;75.75
51239;BME280;38154;47.548;18.828;2023-04-19T00:24:17;98753.69;;;10.67;73.19
51239;BME280;38154;47.548;18.828;2023-04-19T00:26:42;98748.50;;;10.66;72.41
51239;BME280;38154;47.548;18.828;2023-04-19T00:29:08;98751.97;;;10.51;76.62
51239;BME280;38154;47.548;18.828;2023-04-19T00:31:35;98749.34;;;10.55;74.72
51239;BME280;38154;47.548;18.828;2023-04-19T00:34:01;98749.38;;;10.48;77.14
51239;BME280;38154;47.548;18.828;2023-04-19T00:36:27;98750.13;;;10.22;77.04
51239;BME280;38154;47.548;18.828;2023-04-19T00:38:53;98743.16;;;10.12;79.09
51239;BME280;38154;47.548;18.828;2023-04-19T00:41:18;98742.31;;;10.13;77.90
51239;BME280;38154;47.548;18.828;2023-04-19T00:43:44;98739.66;;;9.96;80.62
51239;BME280;38154;47.548;18.828;2023-04-19T00:46:10;98740.50;;;9.95;81.67
51239;BME280;38154;47.548;18.828;2023-04-19T00:48:35;98737.06;;;9.96;80.01
51239;BME280;38154;47.548;18.828;2023-04-19T00:51:01;98734.47;;;10.03;78.60
51239;BME280;38154;47.548;18.828;2023-04-19T00:53:28;98731.88;;;10.07;78.32
51239;BME280;38154;47.548;18.828;2023-04-19T00:55:54;98733.59;;;10.03;81.41
51239;BME280;38154;47.548;18.828;2023-04-19T00:58:21;98732.66;;;9.78;84.17
51239;BME280;38154;47.548;18.828;2023-04-19T01:00:47;98728.31;;;9.75;85.05
51239;BME280;38154;47.548;18.828;2023-04-19T01:03:13;98725.66;;;9.64;86.20
51239;BME280;38154;47.548;18.828;2023-04-19T01:05:39;98724.75;;;9.56;88.76
51239;BME280;38154;47.548;18.828;2023-04-19T01:08:04;98722.06;;;9.39;91.32
51239;BME280;38154;47.548;18.828;2023-04-19T01:10:30;98728.19;;;9.47;91.17
51239;BME280;38154;47.548;18.828;2023-04-19T01:12:56;98722.13;;;9.49;92.42
51239;BME280;38154;47.548;18.828;2023-04-19T01:15:21;98718.69;;;9.59;91.16
51239;BME280;38154;47.548;18.828;2023-04-19T01:17:47;98711.75;;;9.59;92.50
51239;BME280;38154;47.548;18.828;2023-04-19T01:20:13;98710.00;;;9.52;93.26
51239;BME280;38154;47.548;18.828;2023-04-19T01:22:39;98713.47;;;9.56;94.68
51239;BME280;38154;47.548;18.828;2023-04-19T01:25:05;98719.50;;;9.50;98.82
51239;BME280;38154;47.548;18.828;2023-04-19T01:27:31;98704.72;;;9.44;98.73
51239;BME280;38154;47.548;18.828;2023-04-19T01:29:57;98707.31;;;9.37;100.00
51239;BME280;38154;47.548;18.828;2023-04-19T01:32:23;98694.22;;;9.23;100.00
51239;BME280;38154;47.548;18.828;2023-04-19T01:34:50;98691.59;;;9.14;100.00
51239;BME280;38154;47.548;18.828;2023-04-19T01:37:16;98693.28;;;9.07;100.00
51239;BME280;38154;47.548;18.828;2023-04-19T01:39:42;98688.88;;;9.01;100.00
51239;BME280;38154;47.548;18.828;2023-04-19T01:42:08;98686.31;;;9.04;100.00
51239;BME280;38154;47.548;18.828;2023-04-19T01:44:33;98687.19;;;9.06;100.00
51239;BME280;38154;47.548;18.828;2023-04-19T01:46:59;98685.41;;;8.98;100.00
51239;BME280;38154;47.548;18.828;2023-04-19T01:49:24;98682.84;;;9.02;100.00
51239;BME280;38154;47.548;18.828;2023-04-19T01:51:50;98687.19;;;9.03;100.00
51239;BME280;38154;47.548;18.828;2023-04-19T01:54:16;98688.06;;;9.04;100.00
51239;BME280;38154;47.548;18.828;2023-04-19T01:56:42;98679.31;;;8.93;100.00
51239;BME280;38154;47.548;18.828;2023-04-19T01:59:07;98669.78;;;8.96;100.00
51239;BME280;38154;47.548;18.828;2023-04-19T02:01:33;98674.16;;;9.00;100.00
51239;BME280;38154;47.548;18.828;2023-04-19T02:03:59;98686.22;;;8.87;100.00
51239;BME280;38154;47.548;18.828;2023-04-19T02:06:24;98669.72;;;8.82;100.00
51239;BME280;38154;47.548;18.828;2023-04-19T02:08:51;98675.00;;;8.98;100.00
51239;BME280;38154;47.548;18.828;2023-04-19T02:11:16;98678.50;;;8.98;100.00
51239;BME280;38154;47.548;18.828;2023-04-19T02:13:42;98670.66;;;8.94;100.00
51239;BME280;38154;47.548;18.828;2023-04-19T02:16:08;98674.06;;;8.88;100.00
51239;BME280;38154;47.548;18.828;2023-04-19T02:18:35;98675.72;;;8.75;100.00
51239;BME280;38154;47.548;18.828;2023-04-19T02:21:05;98666.91;;;8.56;100.00
51239;BME280;38154;47.548;18.828;2023-04-19T02:23:31;98663.38;;;8.43;100.00
51239;BME280;38154;47.548;18.828;2023-04-19T02:25:57;98664.12;;;8.33;100.00
51239;BME280;38154;47.548;18.828;2023-04-19T02:28:22;98665.84;;;8.35;100.00
51239;BME280;38154;47.548;18.828;2023-04-19T02:30:48;98659.75;;;8.29;100.00
51239;BME280;38154;47.548;18.828;2023-04-19T02:33:14;98662.38;;;8.32;100.00
51239;BME280;38154;47.548;18.828;2023-04-19T02:35:40;98653.72;;;8.33;100.00
51239;BME280;38154;47.548;18.828;2023-04-19T02:38:05;98655.41;;;8.29;100.00
51239;BME280;38154;47.548;18.828;2023-04-19T02:40:31;98651.00;;;8.21;100.00
51239;BME280;38154;47.548;18.828;2023-04-19T02:42:57;98636.31;;;8.24;100.00
51239;BME280;38154;47.548;18.828;2023-04-19T02:45:22;98633.56;;;8.07;100.00
51239;BME280;38154;47.548;18.828;2023-04-19T02:47:48;98638.78;;;8.07;100.00
51239;BME280;38154;47.548;18.828;2023-04-19T02:50:15;98639.63;;;8.03;100.00
51239;BME280;38154;47.548;18.828;2023-04-19T02:52:41;98633.47;;;7.95;100.00
51239;BME280;38154;47.548;18.828;2023-04-19T02:55:06;98638.53;;;7.84;100.00
51239;BME280;38154;47.548;18.828;2023-04-19T02:57:32;98634.19;;;7.78;100.00
51239;BME280;38154;47.548;18.828;2023-04-19T02:59:58;98626.38;;;7.78;100.00
51239;BME280;38154;47.548;18.828;2023-04-19T03:02:24;98623.88;;;7.85;100.00
51239;BME280;38154;47.548;18.828;2023-04-19T03:04:50;98623.88;;;7.85;100.00
51239;BME280;38154;47.548;18.828;2023-04-19T03:07:15;98618.53;;;7.72;100.00
51239;BME280;38154;47.548;18.828;2023-04-19T03:09:41;98618.47;;;7.65;100.00
51239;BME280;38154;47.548;18.828;2023-04-19T03:12:07;98611.38;;;7.50;100.00
51239;BME280;38154;47.548;18.828;2023-04-19T03:14:33;98610.50;;;7.48;100.00
51239;BME280;38154;47.548;18.828;2023-04-19T03:16:58;98609.50;;;7.35;100.00
51239;BME280;38154;47.548;18.828;2023-04-19T03:19:24;98608.66;;;7.37;100.00
51239;BME280;38154;47.548;18.828;2023-04-19T03:21:50;98606.97;;;7.39;100.00
51239;BME280;38154;47.548;18.828;2023-04-19T03:24:17;98614.69;;;7.36;100.00
51239;BME280;38154;47.548;18.828;2023-04-19T03:26:43;98604.31;;;7.36;100.00
51239;BME280;38154;47.548;18.828;2023-04-19T03:29:08;98602.56;;;7.35;100.00
51239;BME280;38154;47.548;18.828;2023-04-19T03:31:35;98599.09;;;7.33;100.00
51239;BME280;38154;47.548;18.828;2023-04-19T03:34:00;98596.47;;;7.30;100.00
51239;BME280;38154;47.548;18.828;2023-04-19T03:36:26;98601.56;;;7.21;100.00
51239;BME280;38154;47.548;18.828;2023-04-19T03:38:52;98591.22;;;7.22;100.00
51239;BME280;38154;47.548;18.828;2023-04-19T03:41:18;98591.22;;;7.24;100.00
51239;BME280;38154;47.548;18.828;2023-04-19T03:43:44;98597.22;;;7.20;100.00
51239;BME280;38154;47.548;18.828;2023-04-19T03:46:10;98589.44;;;7.20;100.00
51239;BME280;38154;47.548;18.828;2023-04-19T03:48:36;98588.53;;;7.16;100.00
51239;BME280;38154;47.548;18.828;2023-04-19T03:51:01;98596.31;;;7.16;100.00
51239;BME280;38154;47.548;18.828;2023-04-19T03:53:27;98590.06;;;7.02;100.00
51239;BME280;38154;47.548;18.828;2023-04-19T03:55:53;98585.66;;;6.95;100.00
51239;BME280;38154;47.548;18.828;2023-04-19T03:58:19;98586.53;;;6.95;100.00
51239;BME280;38154;47.548;18.828;2023-04-19T04:00:44;98594.34;;;6.98;100.00
51239;BME280;38154;47.548;18.828;2023-04-19T04:03:10;98589.19;;;7.00;100.00
51239;BME280;38154;47.548;18.828;2023-04-19T04:05:36;98583.22;;;7.04;100.00
51239;BME280;38154;47.548;18.828;2023-04-19T04:08:01;98578.94;;;7.09;100.00
51239;BME280;38154;47.548;18.828;2023-04-19T04:10:27;98584.16;;;7.14;100.00
51239;BME280;38154;47.548;18.828;2023-04-19T04:12:53;98581.72;;;7.24;100.00
51239;BME280;38154;47.548;18.828;2023-04-19T04:15:18;98581.78;;;7.32;100.00
51239;BME280;38154;47.548;18.828;2023-04-19T04:17:44;98585.28;;;7.34;100.00
51239;BME280;38154;47.548;18.828;2023-04-19T04:20:10;98586.25;;;7.42;100.00
51239;BME280;38154;47.548;18.828;2023-04-19T04:22:44;98576.63;;;7.34;100.00
51239;BME280;38154;47.548;18.828;2023-04-19T04:25:13;98580.97;;;7.36;100.00
51239;BME280;38154;47.548;18.828;2023-04-19T04:27:42;98581.06;;;7.42;100.00
51239;BME280;38154;47.548;18.828;2023-04-19T04:30:12;98580.28;;;7.51;100.00
51239;BME280;38154;47.548;18.828;2023-04-19T04:32:37;98578.66;;;7.66;100.00
51239;BME280;38154;47.548;18.828;2023-04-19T04:35:05;98584.81;;;7.74;100.00
51239;BME280;38154;47.548;18.828;2023-04-19T04:37:31;98578.78;;;7.75;100.00
51239;BME280;38154;47.548;18.828;2023-04-19T04:40:01;98582.31;;;7.85;100.00
51239;BME280;38154;47.548;18.828;2023-04-19T04:42:29;98582.44;;;7.98;100.00
51239;BME280;38154;47.548;18.828;2023-04-19T04:44:55;98588.59;;;8.10;100.00
51239;BME280;38154;47.548;18.828;2023-04-19T04:47:22;98581.75;;;8.23;100.00
51239;BME280;38154;47.548;18.828;2023-04-19T04:49:48;98583.59;;;8.38;100.00
51239;BME280;38154;47.548;18.828;2023-04-19T04:52:14;98584.66;;;8.63;100.00
51239;BME280;38154;47.548;18.828;2023-04-19T04:54:40;98584.78;;;8.78;100.00
51239;BME280;38154;47.548;18.828;2023-04-19T04:57:05;98583.09;;;8.91;100.00
51239;BME280;38154;47.548;18.828;2023-04-19T04:59:31;98580.56;;;9.11;100.00
51239;BME280;38154;47.548;18.828;2023-04-19T05:01:56;98581.56;;;9.49;100.00
51239;BME280;38154;47.548;18.828;2023-04-19T05:04:23;98579.91;;;10.12;100.00
51239;BME280;38154;47.548;18.828;2023-04-19T05:06:49;98576.37;;;10.67;100.00
51239;BME280;38154;47.548;18.828;2023-04-19T05:09:14;98577.09;;;11.22;99.83
51239;BME280;38154;47.548;18.828;2023-04-19T05:11:40;98579.38;;;11.77;89.35
51239;BME280;38154;47.548;18.828;2023-04-19T05:14:05;98577.19;;;12.39;79.21
51239;BME280;38154;47.548;18.828;2023-04-19T05:16:31;98575.81;;;12.87;74.34
51239;BME280;38154;47.548;18.828;2023-04-19T05:18:57;98575.81;;;13.60;69.79
51239;BME280;38154;47.548;18.828;2023-04-19T05:21:22;98574.22;;;14.61;64.14
51239;BME280;38154;47.548;18.828;2023-04-19T05:23:48;98579.28;;;15.56;59.23
51239;BME280;38154;47.548;18.828;2023-04-19T05:26:14;98576.41;;;15.69;57.62
51239;BME280;38154;47.548;18.828;2023-04-19T05:28:40;98577.00;;;15.41;56.28
51239;BME280;38154;47.548;18.828;2023-04-19T05:31:09;98580.12;;;15.16;59.28
51239;BME280;38154;47.548;18.828;2023-04-19T05:33:35;98577.22;;;14.88;64.55
51239;BME280;38154;47.548;18.828;2023-04-19T05:36:00;98579.59;;;14.51;68.14
51239;BME280;38154;47.548;18.828;2023-04-19T05:38:26;98577.47;;;14.23;70.47
51239;BME280;38154;47.548;18.828;2023-04-19T05:40:51;98575.16;;;14.04;71.61
51239;BME280;38154;47.548;18.828;2023-04-19T05:43:17;98576.00;;;14.06;72.81
51239;BME280;38154;47.548;18.828;2023-04-19T05:45:43;98572.41;;;14.10;71.06
51239;BME280;38154;47.548;18.828;2023-04-19T05:48:08;98585.00;;;14.43;70.32
51239;BME280;38154;47.548;18.828;2023-04-19T05:50:34;98588.47;;;14.95;66.15
51239;BME280;38154;47.548;18.828;2023-04-19T05:53:01;98586.03;;;15.28;64.58
51239;BME280;38154;47.548;18.828;2023-04-19T05:55:27;98583.87;;;15.47;62.65
51239;BME280;38154;47.548;18.828;2023-04-19T05:57:52;98581.03;;;15.57;64.14
51239;BME280;38154;47.548;18.828;2023-04-19T06:00:18;98582.50;;;15.30;64.32
51239;BME280;38154;47.548;18.828;2023-04-19T06:02:44;98578.75;;;15.00;65.87
51239;BME280;38154;47.548;18.828;2023-04-19T06:05:09;98580.69;;;14.89;66.02
51239;BME280;38154;47.548;18.828;2023-04-19T06:07:35;98580.25;;;14.67;68.31
51239;BME280;38154;47.548;18.828;2023-04-19T06:10:01;98573.47;;;14.53;67.00
51239;BME280;38154;47.548;18.828;2023-04-19T06:12:26;98576.06;;;14.55;67.04
51239;BME280;38154;47.548;18.828;2023-04-19T06:14:52;98569.09;;;14.52;67.35
51239;BME280;38154;47.548;18.828;2023-04-19T06:17:18;98569.72;;;14.68;66.77
51239;BME280;38154;47.548;18.828;2023-04-19T06:19:49;98565.34;;;14.69;68.37
51239;BME280;38154;47.548;18.828;2023-04-19T06:22:15;98564.41;;;14.70;68.04
51239;BME280;38154;47.548;18.828;2023-04-19T06:24:42;98565.84;;;14.88;66.79
51239;BME280;38154;47.548;18.828;2023-04-19T06:27:08;98553.91;;;14.70;67.50
51239;BME280;38154;47.548;18.828;2023-04-19T06:29:34;98559.28;;;14.65;71.79
51239;BME280;38154;47.548;18.828;2023-04-19T06:32:00;98555.06;;;14.55;70.53
51239;BME280;38154;47.548;18.828;2023-04-19T06:34:25;98560.06;;;14.70;69.28
51239;BME280;38154;47.548;18.828;2023-04-19T06:36:51;98559.22;;;14.68;69.43
51239;BME280;38154;47.548;18.828;2023-04-19T06:39:17;98559.31;;;14.63;69.11
51239;BME280;38154;47.548;18.828;2023-04-19T06:41:42;98562.91;;;14.56;72.13
51239;BME280;38154;47.548;18.828;2023-04-19T06:44:08;98561.78;;;14.70;73.45
51239;BME280;38154;47.548;18.828;2023-04-19T06:46:33;98555.59;;;14.75;71.77
51239;BME280;38154;47.548;18.828;2023-04-19T06:48:59;98556.53;;;15.15;71.70
51239;BME280;38154;47.548;18.828;2023-04-19T06:51:25;98567.09;;;15.54;70.37
51239;BME280;38154;47.548;18.828;2023-04-19T06:53:51;98559.28;;;15.90;66.75
51239;BME280;38154;47.548;18.828;2023-04-19T06:56:16;98565.53;;;16.22;62.48
51239;BME280;38154;47.548;18.828;2023-04-19T06:58:42;98564.22;;;16.40;60.78
51239;BME280;38154;47.548;18.828;2023-04-19T07:01:08;98565.50;;;16.91;59.27
51239;BME280;38154;47.548;18.828;2023-04-19T07:03:33;98571.09;;;17.41;55.95
51239;BME280;38154;47.548;18.828;2023-04-19T07:05:59;98567.78;;;17.64;54.35
51239;BME280;38154;47.548;18.828;2023-04-19T07:08:25;98570.88;;;17.49;54.41
51239;BME280;38154;47.548;18.828;2023-04-19T07:10:51;98566.03;;;18.20;53.73
51239;BME280;38154;47.548;18.828;2023-04-19T07:13:17;98567.81;;;18.71;54.34
51239;BME280;38154;47.548;18.828;2023-04-19T07:15:44;98571.13;;;20.18;49.59
51239;BME280;38154;47.548;18.828;2023-04-19T07:18:10;98566.84;;;21.58;43.25
51239;BME280;38154;47.548;18.828;2023-04-19T07:20:35;98571.31;;;23.00;39.79
51239;BME280;38154;47.548;18.828;2023-04-19T07:23:01;98576.37;;;24.50;35.59
51239;BME280;38154;47.548;18.828;2023-04-19T07:25:27;98579.12;;;25.37;32.63
51239;BME280;38154;47.548;18.828;2023-04-19T07:27:53;98573.63;;;25.10;34.23
51239;BME280;38154;47.548;18.828;2023-04-19T07:30:19;98572.72;;;25.26;33.38
51239;BME280;38154;47.548;18.828;2023-04-19T07:32:45;98581.97;;;25.34;33.80
51239;BME280;38154;47.548;18.828;2023-04-19T07:35:11;98574.94;;;26.31;31.45
51239;BME280;38154;47.548;18.828;2023-04-19T07:37:36;98580.47;;;27.71;29.38
51239;BME280;38154;47.548;18.828;2023-04-19T07:40:02;98572.94;;;28.37;28.32
51239;BME280;38154;47.548;18.828;2023-04-19T07:42:29;98575.59;;;26.88;30.37
51239;BME280;38154;47.548;18.828;2023-04-19T07:44:55;98567.13;;;25.86;30.14
51239;BME280;38154;47.548;18.828;2023-04-19T07:47:21;98573.88;;;25.36;30.66
51239;BME280;38154;47.548;18.828;2023-04-19T07:49:50;98567.03;;;24.26;32.64
51239;BME280;38154;47.548;18.828;2023-04-19T07:52:16;98563.75;;;24.07;32.94
51239;BME280;38154;47.548;18.828;2023-04-19T07:54:42;98568.69;;;25.04;32.24
51239;BME280;38154;47.548;18.828;2023-04-19T07:57:08;98577.53;;;25.91;31.43
51239;BME280;38154;47.548;18.828;2023-04-19T07:59:34;98572.22;;;26.58;31.33
51239;BME280;38154;47.548;18.828;2023-04-19T08:01:59;98573.00;;;27.25;29.27
51239;BME280;38154;47.548;18.828;2023-04-19T08:04:25;98577.19;;;27.54;29.21
51239;BME280;38154;47.548;18.828;2023-04-19T08:06:51;98580.63;;;27.93;28.38
51239;BME280;38154;47.548;18.828;2023-04-19T08:09:17;98577.56;;;28.35;27.33
51239;BME280;38154;47.548;18.828;2023-04-19T08:11:43;98579.38;;;28.59;26.79
51239;BME280;38154;47.548;18.828;2023-04-19T08:14:08;98577.38;;;28.49;26.41
51239;BME280;38154;47.548;18.828;2023-04-19T08:16:34;98571.88;;;27.29;28.77
51239;BME280;38154;47.548;18.828;2023-04-19T08:19:00;98568.53;;;25.92;30.51
51239;BME280;38154;47.548;18.828;2023-04-19T08:21:26;98565.78;;;24.78;32.48
51239;BME280;38154;47.548;18.828;2023-04-19T08:23:51;98557.03;;;23.52;36.08
51239;BME280;38154;47.548;18.828;2023-04-19T08:26:17;98560.25;;;22.39;37.46
51239;BME280;38154;47.548;18.828;2023-04-19T08:28:43;98553.84;;;21.71;39.97
51239;BME280;38154;47.548;18.828;2023-04-19T08:31:09;98559.63;;;21.22;40.91
51239;BME280;38154;47.548;18.828;2023-04-19T08:33:34;98558.03;;;21.18;41.50
51239;BME280;38154;47.548;18.828;2023-04-19T08:36:00;98554.19;;;21.44;43.29
51239;BME280;38154;47.548;18.828;2023-04-19T08:38:26;98547.88;;;21.08;42.00
51239;BME280;38154;47.548;18.828;2023-04-19T08:40:52;98546.63;;;20.97;42.97
51239;BME280;38154;47.548;18.828;2023-04-19T08:43:19;98547.94;;;20.45;44.32
51239;BME280;38154;47.548;18.828;2023-04-19T08:45:48;98545.66;;;20.36;44.86
51239;BME280;38154;47.548;18.828;2023-04-19T08:48:15;98545.41;;;20.22;43.68
51239;BME280;38154;47.548;18.828;2023-04-19T08:50:41;98543.91;;;20.36;44.35
51239;BME280;38154;47.548;18.828;2023-04-19T08:53:07;98534.84;;;20.63;44.93
51239;BME280;38154;47.548;18.828;2023-04-19T08:55:33;98547.66;;;21.89;41.40
51239;BME280;38154;47.548;18.828;2023-04-19T08:58:00;98542.31;;;23.29;40.02
51239;BME280;38154;47.548;18.828;2023-04-19T09:00:27;98537.56;;;24.60;38.40
51239;BME280;38154;47.548;18.828;2023-04-19T09:02:53;98545.34;;;24.93;36.54
51239;BME280;38154;47.548;18.828;2023-04-19T09:05:20;98543.63;;;23.53;37.88
51239;BME280;38154;47.548;18.828;2023-04-19T09:07:46;98539.16;;;22.71;40.06
51239;BME280;38154;47.548;18.828;2023-04-19T09:10:12;98538.37;;;23.36;39.37
51239;BME280;38154;47.548;18.828;2023-04-19T09:12:39;98527.22;;;24.55;37.73
51239;BME280;38154;47.548;18.828;2023-04-19T09:15:05;98532.94;;;25.91;35.66
51239;BME280;38154;47.548;18.828;2023-04-19T09:17:37;98529.25;;;26.87;34.11
51239;BME280;38154;47.548;18.828;2023-04-19T09:20:03;98530.00;;;26.63;32.84
51239;BME280;38154;47.548;18.828;2023-04-19T09:22:29;98535.53;;;26.20;35.09
51239;BME280;38154;47.548;18.828;2023-04-19T09:24:56;98523.03;;;26.21;34.53
51239;BME280;38154;47.548;18.828;2023-04-19T09:27:30;98525.28;;;26.93;32.52
51239;BME280;38154;47.548;18.828;2023-04-19T09:29:57;98531.22;;;27.61;31.27
51239;BME280;38154;47.548;18.828;2023-04-19T09:32:23;98522.09;;;28.60;30.61
51239;BME280;38154;47.548;18.828;2023-04-19T09:34:50;98530.87;;;28.62;30.02
51239;BME280;38154;47.548;18.828;2023-04-19T09:37:16;98524.94;;;27.49;29.73
51239;BME280;38154;47.548;18.828;2023-04-19T09:39:42;98521.41;;;28.45;29.27
51239;BME280;38154;47.548;18.828;2023-04-19T09:42:07;98521.25;;;28.35;30.52
51239;BME280;38154;47.548;18.828;2023-04-19T09:44:33;98526.59;;;28.00;31.08
51239;BME280;38154;47.548;18.828;2023-04-19T09:46:59;98531.19;;;28.22;29.91
51239;BME280;38154;47.548;18.828;2023-04-19T09:49:25;98509.75;;;27.11;31.91
51239;BME280;38154;47.548;18.828;2023-04-19T09:51:55;98520.84;;;26.40;33.44
51239;BME280;38154;47.548;18.828;2023-04-19T09:54:24;98521.16;;;25.81;33.71
51239;BME280;38154;47.548;18.828;2023-04-19T09:56:53;98512.50;;;26.05;32.65
51239;BME280;38154;47.548;18.828;2023-04-19T09:59:18;98524.09;;;25.49;35.94
51239;BME280;38154;47.548;18.828;2023-04-19T10:01:45;98509.59;;;25.95;33.72
51239;BME280;38154;47.548;18.828;2023-04-19T10:04:14;98519.03;;;27.18;34.44
51239;BME280;38154;47.548;18.828;2023-04-19T10:06:50;98520.84;;;27.93;31.26
51239;BME280;38154;47.548;18.828;2023-04-19T10:09:19;98511.34;;;28.24;32.28
51239;BME280;38154;47.548;18.828;2023-04-19T10:11:46;98517.53;;;28.49;29.61
51239;BME280;38154;47.548;18.828;2023-04-19T10:14:13;98521.13;;;28.37;29.64
51239;BME280;38154;47.548;18.828;2023-04-19T10:16:39;98512.13;;;28.73;30.22
51239;BME280;38154;47.548;18.828;2023-04-19T10:19:08;98520.06;;;28.97;30.63
51239;BME280;38154;47.548;18.828;2023-04-19T10:21:35;98514.22;;;29.49;28.78
51239;BME280;38154;47.548;18.828;2023-04-19T10:24:01;98505.47;;;28.55;30.15
51239;BME280;38154;47.548;18.828;2023-04-19T10:26:27;98508.91;;;28.57;31.97
51239;BME280;38154;47.548;18.828;2023-04-19T10:28:53;98501.50;;;27.14;31.01
51239;BME280;38154;47.548;18.828;2023-04-19T10:31:19;98505.88;;;24.70;35.87
51239;BME280;38154;47.548;18.828;2023-04-19T10:33:48;98499.59;;;23.48;38.48
51239;BME280;38154;47.548;18.828;2023-04-19T10:36:14;98489.94;;;22.80;40.01
51239;BME280;38154;47.548;18.828;2023-04-19T10:38:43;98489.38;;;22.40;39.60
51239;BME280;38154;47.548;18.828;2023-04-19T10:41:11;98492.06;;;24.18;36.47
51239;BME280;38154;47.548;18.828;2023-04-19T10:43:39;98491.66;;;23.94;36.06
51239;BME280;38154;47.548;18.828;2023-04-19T10:46:06;98488.75;;;23.83;38.57
51239;BME280;38154;47.548;18.828;2023-04-19T10:48:33;98485.72;;;24.94;38.65
51239;BME280;38154;47.548;18.828;2023-04-19T11:04:04;98480.34;;;20.36;47.96
51239;BME280;38154;47.548;18.828;2023-04-19T11:06:30;98482.06;;;20.58;48.07
51239;BME280;38154;47.548;18.828;2023-04-19T11:08:56;98471.19;;;20.64;49.57
51239;BME280;38154;47.548;18.828;2023-04-19T11:11:22;98476.63;;;21.20;48.06
51239;BME280;38154;47.548;18.828;2023-04-19T11:13:49;98482.63;;;22.68;43.57
51239;BME280;38154;47.548;18.828;2023-04-19T11:16:15;98483.44;;;23.83;42.51
51239;BME280;38154;47.548;18.828;2023-04-19T11:18:41;98482.09;;;24.95;41.43
51239;BME280;38154;47.548;18.828;2023-04-19T11:21:06;98478.84;;;25.33;39.89
51239;BME280;38154;47.548;18.828;2023-04-19T11:23:36;98481.66;;;25.59;39.28
51239;BME280;38154;47.548;18.828;2023-04-19T11:26:02;98478.53;;;25.52;38.81
51239;BME280;38154;47.548;18.828;2023-04-19T11:28:28;98486.44;;;25.25;39.40
51239;BME280;38154;47.548;18.828;2023-04-19T11:30:53;98479.22;;;24.98;39.22
51239;BME280;38154;47.548;18.828;2023-04-19T11:33:19;98492.37;;;24.87;41.07
51239;BME280;38154;47.548;18.828;2023-04-19T11:35:49;98482.75;;;25.69;39.60
51239;BME280;38154;47.548;18.828;2023-04-19T11:38:15;98486.78;;;25.89;38.13
51239;BME280;38154;47.548;18.828;2023-04-19T11:40:41;98482.44;;;25.04;38.31
51239;BME280;38154;47.548;18.828;2023-04-19T11:43:06;98484.97;;;24.92;38.41
51239;BME280;38154;47.548;18.828;2023-04-19T11:45:36;98481.84;;;25.83;38.39
51239;BME280;38154;47.548;18.828;2023-04-19T11:48:05;98475.19;;;26.43;36.59
51239;BME280;38154;47.548;18.828;2023-04-19T11:50:52;98479.84;;;26.27;34.78
51239;BME280;38154;47.548;18.828;2023-04-19T11:53:18;98472.12;;;26.22;35.89
51239;BME280;38154;47.548;18.828;2023-04-19T11:55:48;98470.34;;;26.23;35.64
51239;BME280;38154;47.548;18.828;2023-04-19T12:01:01;98471.72;;;25.88;36.12
51239;BME280;38154;47.548;18.828;2023-04-19T12:03:29;98467.09;;;25.78;36.85
51239;BME280;38154;47.548;18.828;2023-04-19T12:05:55;98464.28;;;25.52;35.55
51239;BME280;38154;47.548;18.828;2023-04-19T12:08:34;98476.63;;;25.40;36.46
51239;BME280;38154;47.548;18.828;2023-04-19T12:11:01;98471.53;;;24.94;37.64
51239;BME280;38154;47.548;18.828;2023-04-19T12:13:28;98456.09;;;24.99;38.56
51239;BME280;38154;47.548;18.828;2023-04-19T12:15:55;98462.56;;;24.95;39.02
51239;BME280;38154;47.548;18.828;2023-04-19T12:18:21;98466.16;;;24.65;38.40
51239;BME280;38154;47.548;18.828;2023-04-19T12:20:48;98457.16;;;24.37;38.81
51239;BME280;38154;47.548;18.828;2023-04-19T12:23:14;98451.94;;;23.59;39.52
51239;BME280;38154;47.548;18.828;2023-04-19T12:25:41;98451.28;;;23.08;39.83
51239;BME280;38154;47.548;18.828;2023-04-19T12:28:07;98443.75;;;22.49;40.97
51239;BME280;38154;47.548;18.828;2023-04-19T12:30:34;98446.63;;;22.45;42.19
51239;BME280;38154;47.548;18.828;2023-04-19T12:33:00;98441.09;;;22.32;43.71
51239;BME280;38154;47.548;18.828;2023-04-19T12:35:27;98443.34;;;22.04;41.80
51239;BME280;38154;47.548;18.828;2023-04-19T12:37:53;98437.38;;;21.82;44.75
51239;BME280;38154;47.548;18.828;2023-04-19T12:40:19;98435.22;;;21.90;43.85
51239;BME280;38154;47.548;18.828;2023-04-19T12:42:45;98437.34;;;22.36;43.95
51239;BME280;38154;47.548;18.828;2023-04-19T12:45:11;98426.72;;;22.01;44.03
51239;BME280;38154;47.548;18.828;2023-04-19T12:47:37;98431.37;;;21.78;44.47
51239;BME280;38154;47.548;18.828;2023-04-19T12:50:03;98427.53;;;21.30;47.28
51239;BME280;38154;47.548;18.828;2023-04-19T12:52:29;98424.56;;;21.36;46.66
51239;BME280;38154;47.548;18.828;2023-04-19T12:54:54;98432.97;;;21.08;50.00
51239;BME280;38154;47.548;18.828;2023-04-19T12:57:20;98439.41;;;20.64;50.94
51239;BME280;38154;47.548;18.828;2023-04-19T12:59:46;98433.97;;;20.47;52.53
51239;BME280;38154;47.548;18.828;2023-04-19T13:02:12;98435.97;;;20.42;53.03